createdAt,value
2022-11-29T00:00:15.387Z,25.50
2022-11-29T00:02:20.051Z,26.40
2022-11-29T00:04:24.818Z,25.60
2022-11-29T00:06:30.847Z,25.40
2022-11-29T00:08:36.029Z,26.30
2022-11-29T00:10:40.652Z,26.40
2022-11-29T00:12:46.343Z,21.70
2022-11-29T00:14:51.000Z,26.30
2022-11-29T00:16:57.205Z,26.10
2022-11-29T00:19:02.201Z,24.70
2022-11-29T00:21:09.102Z,20.90
2022-11-29T00:23:13.713Z,28.10
2022-11-29T00:25:18.292Z,27.60
2022-11-29T00:27:22.970Z,28.50
2022-11-29T00:29:29.356Z,29.00
2022-11-29T00:31:34.618Z,27.80
2022-11-29T00:33:39.256Z,25.10
2022-11-29T00:35:43.931Z,27.40
2022-11-29T00:37:51.430Z,25.60
2022-11-29T00:39:56.122Z,23.80
2022-11-29T00:42:00.739Z,24.70
2022-11-29T00:44:05.492Z,25.30
2022-11-29T00:46:10.517Z,27.60
2022-11-29T00:48:15.279Z,27.30
2022-11-29T00:50:20.384Z,25.20
2022-11-29T00:52:24.964Z,26.30
2022-11-29T00:54:29.683Z,26.60
2022-11-29T00:56:34.308Z,26.40
2022-11-29T00:58:38.975Z,25.60
2022-11-29T01:00:43.904Z,24.10
2022-11-29T01:02:48.521Z,27.10
2022-11-29T01:04:54.346Z,26.10
2022-11-29T01:06:59.051Z,25.00
2022-11-29T01:09:04.120Z,25.50
2022-11-29T01:11:13.050Z,23.80
2022-11-29T01:13:17.723Z,23.20
2022-11-29T01:15:22.720Z,22.60
2022-11-29T01:17:27.323Z,25.70
2022-11-29T01:19:31.947Z,25.20
2022-11-29T01:21:36.627Z,24.70
2022-11-29T01:23:41.709Z,25.10
2022-11-29T01:25:46.491Z,21.00
2022-11-29T01:27:51.082Z,25.10
2022-11-29T01:29:55.681Z,22.30
2022-11-29T01:32:00.296Z,24.70
2022-11-29T01:34:06.372Z,24.80
2022-11-29T01:36:12.978Z,25.40
2022-11-29T01:38:17.794Z,25.30
2022-11-29T01:40:22.437Z,26.50
2022-11-29T01:42:27.132Z,23.60
2022-11-29T01:45:02.739Z,23.80
2022-11-29T01:47:10.224Z,27.20
2022-11-29T01:49:18.698Z,23.90
2022-11-29T01:51:24.379Z,23.80
2022-11-29T01:53:29.284Z,25.00
2022-11-29T01:55:37.375Z,23.10
2022-11-29T01:57:43.885Z,25.00
2022-11-29T01:59:52.324Z,22.30
2022-11-29T02:02:04.682Z,23.80
2022-11-29T02:04:09.742Z,23.70
2022-11-29T02:06:15.795Z,23.40
2022-11-29T02:08:25.058Z,21.30
2022-11-29T02:10:37.689Z,24.10
2022-11-29T02:12:56.941Z,23.80
2022-11-29T02:15:25.068Z,25.70
2022-11-29T02:17:35.774Z,25.20
2022-11-29T02:20:03.034Z,24.00
2022-11-29T02:22:12.093Z,24.20
2022-11-29T02:24:41.297Z,23.80
2022-11-29T02:27:16.774Z,21.20
2022-11-29T02:29:42.065Z,22.20
2022-11-29T02:32:10.337Z,22.10
2022-11-29T02:34:35.067Z,21.80
2022-11-29T02:36:57.013Z,25.00
2022-11-29T02:39:49.486Z,22.70
2022-11-29T02:42:16.273Z,23.10
2022-11-29T02:44:48.862Z,25.40
2022-11-29T02:47:08.945Z,21.80
2022-11-29T02:49:21.563Z,24.80
2022-11-29T02:51:32.701Z,27.20
2022-11-29T02:53:44.626Z,24.40
2022-11-29T02:55:56.793Z,24.30
2022-11-29T02:58:09.535Z,24.60
2022-11-29T03:00:18.177Z,25.20
2022-11-29T03:02:32.657Z,23.40
2022-11-29T03:04:43.848Z,23.10
2022-11-29T03:06:57.268Z,22.50
2022-11-29T03:09:07.901Z,23.60
2022-11-29T03:11:20.540Z,24.10
2022-11-29T03:13:36.357Z,23.70
2022-11-29T03:15:48.155Z,21.60
2022-11-29T03:18:03.090Z,24.50
2022-11-29T03:20:25.814Z,25.60
2022-11-29T03:22:42.978Z,22.30
2022-11-29T03:24:54.565Z,24.70
2022-11-29T03:27:03.574Z,24.20
2022-11-29T03:29:11.866Z,22.90
2022-11-29T03:31:25.944Z,23.00
2022-11-29T03:33:38.915Z,23.30
2022-11-29T03:35:47.872Z,23.50
2022-11-29T03:37:58.614Z,23.00
2022-11-29T03:40:07.876Z,24.60
2022-11-29T03:42:18.620Z,24.00
2022-11-29T03:44:27.855Z,22.90
2022-11-29T03:46:38.013Z,24.40
2022-11-29T03:48:48.738Z,24.80
2022-11-29T03:50:57.307Z,20.40
2022-11-29T03:53:13.743Z,22.40
2022-11-29T03:55:46.410Z,23.30
2022-11-29T03:58:03.011Z,22.50
2022-11-29T04:00:11.061Z,25.10
2022-11-29T04:02:45.910Z,24.90
2022-11-29T04:05:36.050Z,23.40
2022-11-29T04:08:04.372Z,22.90
2022-11-29T04:10:20.464Z,23.40
2022-11-29T04:12:47.521Z,26.10
2022-11-29T04:15:17.277Z,25.00
2022-11-29T04:18:00.696Z,23.20
2022-11-29T04:20:48.158Z,22.80
2022-11-29T04:23:31.349Z,22.70
2022-11-29T04:25:48.572Z,26.40
2022-11-29T04:28:20.303Z,24.50
2022-11-29T04:30:25.897Z,23.30
2022-11-29T04:33:11.090Z,23.80
2022-11-29T04:35:38.537Z,23.50
2022-11-29T04:38:15.940Z,23.40
2022-11-29T04:40:41.006Z,24.30
2022-11-29T04:43:17.712Z,23.20
2022-11-29T04:45:59.410Z,24.40
2022-11-29T04:48:18.229Z,24.50
2022-11-29T04:50:49.570Z,23.40
2022-11-29T04:53:16.574Z,23.60
2022-11-29T04:55:37.075Z,27.90
2022-11-29T04:57:51.453Z,25.00
2022-11-29T05:00:05.650Z,25.10
2022-11-29T05:02:17.545Z,27.20
2022-11-29T05:04:29.649Z,25.60
2022-11-29T05:06:42.330Z,25.60
2022-11-29T05:08:56.128Z,28.10
2022-11-29T05:11:12.107Z,29.10
2022-11-29T05:13:23.737Z,31.20
2022-11-29T05:15:49.835Z,27.80
2022-11-29T05:18:04.048Z,26.90
2022-11-29T05:20:22.885Z,29.00
2022-11-29T05:22:33.131Z,28.30
2022-11-29T05:24:53.537Z,29.80
2022-11-29T05:27:08.561Z,23.70
2022-11-29T05:29:20.572Z,29.50
2022-11-29T05:31:40.689Z,28.60
2022-11-29T05:34:15.243Z,29.90
2022-11-29T05:36:29.505Z,30.50
2022-11-29T05:38:43.854Z,32.40
2022-11-29T05:41:02.690Z,30.40
2022-11-29T05:43:22.827Z,30.90
2022-11-29T05:45:33.188Z,33.80
2022-11-29T05:47:46.766Z,29.80
2022-11-29T05:50:05.640Z,28.80
2022-11-29T05:52:24.583Z,30.90
2022-11-29T05:54:34.337Z,33.30
2022-11-29T05:56:48.444Z,31.60
2022-11-29T05:58:58.421Z,31.30
2022-11-29T06:01:14.208Z,30.10
2022-11-29T06:03:24.758Z,31.20
2022-11-29T06:05:35.071Z,30.00
2022-11-29T06:07:45.246Z,30.70
2022-11-29T06:10:01.365Z,30.20
2022-11-29T06:12:18.163Z,32.70
2022-11-29T06:14:45.447Z,31.90
2022-11-29T06:17:08.708Z,31.30
2022-11-29T06:19:49.374Z,31.20
2022-11-29T06:22:07.548Z,30.70
2022-11-29T06:24:34.942Z,30.50
2022-11-29T06:26:57.628Z,30.60
2022-11-29T06:29:21.918Z,31.80
2022-11-29T06:31:32.137Z,31.90
2022-11-29T06:33:44.423Z,29.00
2022-11-29T06:35:57.452Z,31.00
2022-11-29T06:38:09.093Z,30.70
2022-11-29T06:40:16.289Z,29.90
2022-11-29T06:42:20.848Z,32.90
2022-11-29T06:44:26.413Z,34.90
2022-11-29T06:46:43.523Z,34.00
2022-11-29T06:48:56.597Z,28.20
2022-11-29T06:51:14.360Z,32.80
2022-11-29T06:53:29.623Z,33.30
2022-11-29T06:55:44.342Z,30.00
2022-11-29T06:58:05.687Z,28.40
2022-11-29T07:00:16.320Z,29.40
2022-11-29T07:02:34.522Z,30.10
2022-11-29T07:04:54.414Z,30.20
2022-11-29T07:06:59.938Z,28.20
2022-11-29T07:09:13.203Z,29.30
2022-11-29T07:11:18.229Z,28.80
2022-11-29T07:13:23.893Z,28.70
2022-11-29T07:15:29.587Z,27.40
2022-11-29T07:17:42.590Z,29.50
2022-11-29T07:19:54.828Z,29.00
2022-11-29T07:22:05.907Z,26.60
2022-11-29T07:24:25.347Z,30.40
2022-11-29T07:26:35.174Z,29.40
2022-11-29T07:28:54.941Z,27.40
2022-11-29T07:31:05.146Z,26.20
2022-11-29T07:33:18.940Z,27.70
2022-11-29T07:35:33.586Z,27.90
2022-11-29T07:37:50.075Z,28.80
2022-11-29T07:40:01.675Z,27.10
2022-11-29T07:42:15.190Z,29.40
2022-11-29T07:44:28.531Z,27.60
2022-11-29T07:46:33.137Z,27.70
2022-11-29T07:48:37.901Z,24.50
2022-11-29T07:50:42.793Z,26.00
2022-11-29T07:52:47.764Z,27.50
2022-11-29T07:54:52.388Z,28.90
2022-11-29T07:56:57.019Z,26.60
2022-11-29T07:59:01.717Z,25.50
2022-11-29T08:01:06.714Z,24.90
2022-11-29T08:03:11.903Z,27.00
2022-11-29T08:05:17.051Z,27.30
2022-11-29T08:07:21.704Z,25.70
2022-11-29T08:09:26.327Z,20.70
2022-11-29T08:11:30.960Z,26.20
2022-11-29T08:13:35.573Z,24.10
2022-11-29T08:15:45.283Z,26.50
2022-11-29T08:17:52.319Z,25.50
2022-11-29T08:20:00.025Z,25.90
2022-11-29T08:22:08.510Z,26.10
2022-11-29T08:24:13.466Z,25.60
2022-11-29T08:26:20.435Z,25.70
2022-11-29T08:28:25.042Z,26.50
2022-11-29T08:30:31.085Z,26.10
2022-11-29T08:32:38.573Z,25.80
2022-11-29T08:34:43.432Z,22.30
2022-11-29T08:36:48.507Z,24.80
2022-11-29T08:39:01.265Z,24.20
2022-11-29T08:41:10.055Z,25.10
2022-11-29T08:43:14.931Z,24.20
2022-11-29T08:45:19.720Z,23.40
2022-11-29T08:47:24.314Z,23.00
2022-11-29T08:49:28.996Z,25.30
2022-11-29T08:51:33.585Z,23.30
2022-11-29T08:53:38.274Z,23.20
2022-11-29T08:55:43.299Z,24.90
2022-11-29T08:57:48.284Z,24.80
2022-11-29T08:59:52.936Z,23.30
2022-11-29T09:01:57.630Z,22.60
2022-11-29T09:04:02.259Z,23.10
2022-11-29T09:06:13.005Z,23.80
2022-11-29T09:08:17.864Z,22.20
2022-11-29T09:10:22.588Z,22.20
2022-11-29T09:12:27.244Z,23.30
2022-11-29T09:14:31.861Z,23.60
2022-11-29T09:16:38.348Z,22.40
2022-11-29T09:18:48.547Z,23.80
2022-11-29T09:20:55.910Z,22.30
2022-11-29T09:23:01.549Z,23.40
2022-11-29T09:25:07.337Z,23.10
2022-11-29T09:27:11.978Z,17.00
2022-11-29T09:29:18.093Z,21.80
2022-11-29T09:31:22.800Z,21.60
2022-11-29T09:33:27.526Z,21.20
2022-11-29T09:35:32.591Z,22.20
2022-11-29T09:37:37.250Z,22.10
2022-11-29T09:39:42.294Z,21.10
2022-11-29T09:42:12.486Z,22.20
2022-11-29T09:44:21.916Z,23.00
2022-11-29T09:46:38.463Z,20.20
2022-11-29T09:49:04.611Z,21.30
2022-11-29T09:51:22.395Z,21.10
2022-11-29T09:53:40.524Z,20.60
2022-11-29T09:55:59.922Z,20.60
2022-11-29T09:58:06.028Z,19.20
2022-11-29T10:00:18.037Z,20.70
2022-11-29T10:02:30.336Z,19.20
2022-11-29T10:04:41.302Z,18.90
2022-11-29T10:06:50.218Z,20.60
2022-11-29T10:08:59.413Z,20.70
2022-11-29T10:11:15.875Z,20.40
2022-11-29T10:13:24.079Z,21.00
2022-11-29T10:15:30.790Z,20.50
2022-11-29T10:17:39.016Z,21.20
2022-11-29T10:19:48.007Z,22.70
2022-11-29T10:22:00.703Z,23.50
2022-11-29T10:24:11.080Z,20.80
2022-11-29T10:26:16.342Z,21.10
2022-11-29T10:28:23.919Z,21.50
2022-11-29T10:30:28.652Z,23.10
2022-11-29T10:32:33.804Z,21.20
2022-11-29T10:34:39.139Z,21.90
2022-11-29T10:36:46.613Z,18.80
2022-11-29T10:38:53.658Z,21.60
2022-11-29T10:41:04.146Z,23.70
2022-11-29T10:43:08.886Z,23.00
2022-11-29T10:45:22.662Z,32.40
2022-11-29T10:47:27.521Z,24.10
2022-11-29T10:49:36.134Z,23.20
2022-11-29T10:51:40.995Z,22.10
2022-11-29T10:53:46.310Z,21.00
2022-11-29T10:55:55.173Z,20.10
2022-11-29T10:58:14.838Z,21.80
2022-11-29T11:00:20.193Z,21.00
2022-11-29T11:02:25.033Z,18.80
2022-11-29T11:04:33.543Z,19.50
2022-11-29T11:06:49.958Z,20.00
2022-11-29T11:08:56.860Z,19.50
2022-11-29T11:11:03.107Z,17.30
2022-11-29T11:13:20.657Z,21.00
2022-11-29T11:15:31.498Z,19.90
2022-11-29T11:17:36.097Z,20.30
2022-11-29T11:19:40.960Z,22.00
2022-11-29T11:21:45.633Z,22.50
2022-11-29T11:23:57.684Z,18.80
2022-11-29T11:26:05.219Z,20.40
2022-11-29T11:28:23.674Z,20.80
2022-11-29T11:30:30.134Z,18.90
2022-11-29T11:32:35.157Z,28.00
2022-11-29T11:34:50.247Z,23.50
2022-11-29T11:37:10.968Z,22.40
2022-11-29T11:39:22.690Z,19.80
2022-11-29T11:41:29.886Z,22.70
2022-11-29T11:43:35.433Z,21.00
2022-11-29T11:45:40.072Z,21.60
2022-11-29T11:47:47.533Z,22.00
2022-11-29T11:50:04.167Z,22.90
2022-11-29T11:52:16.618Z,21.20
2022-11-29T11:54:21.769Z,20.80
2022-11-29T11:56:33.577Z,20.70
2022-11-29T11:58:45.252Z,21.20
2022-11-29T12:01:08.637Z,20.70
2022-11-29T12:03:26.461Z,23.80
2022-11-29T12:05:31.213Z,22.10
2022-11-29T12:08:06.765Z,20.20
2022-11-29T12:10:14.890Z,20.10
2022-11-29T12:12:23.763Z,22.20
2022-11-29T12:14:36.780Z,20.80
2022-11-29T12:16:43.096Z,21.30
2022-11-29T12:18:51.999Z,20.80
2022-11-29T12:21:01.548Z,20.60
2022-11-29T12:23:21.741Z,22.60
2022-11-29T12:25:29.990Z,20.70
2022-11-29T12:27:34.618Z,18.30
2022-11-29T12:29:39.303Z,20.40
2022-11-29T12:31:59.180Z,20.10
2022-11-29T12:34:22.666Z,20.10
2022-11-29T12:36:39.766Z,19.90
2022-11-29T12:38:58.440Z,19.70
2022-11-29T12:41:17.922Z,19.30
2022-11-29T12:43:34.453Z,18.70
2022-11-29T12:45:45.425Z,19.60
2022-11-29T12:48:02.116Z,23.20
2022-11-29T12:50:19.469Z,24.50
2022-11-29T12:52:33.315Z,20.10
2022-11-29T12:54:55.375Z,20.50
2022-11-29T12:57:10.465Z,19.90
2022-11-29T12:59:30.915Z,17.20
2022-11-29T13:01:47.267Z,20.50
2022-11-29T13:03:58.850Z,18.90
2022-11-29T13:06:14.615Z,18.70
2022-11-29T13:08:45.016Z,17.80
2022-11-29T13:11:06.208Z,15.50
2022-11-29T13:13:21.016Z,16.00
2022-11-29T13:15:35.709Z,17.90
2022-11-29T13:17:45.811Z,18.00
2022-11-29T13:19:55.471Z,17.80
2022-11-29T13:22:09.321Z,20.00
2022-11-29T13:24:19.428Z,20.00
2022-11-29T13:26:27.145Z,23.90
2022-11-29T13:28:35.329Z,16.70
2022-11-29T13:30:41.026Z,18.30
2022-11-29T13:32:53.896Z,16.90
2022-11-29T13:35:01.973Z,17.10
2022-11-29T13:37:18.625Z,18.80
2022-11-29T13:39:38.632Z,18.40
2022-11-29T13:41:53.941Z,19.90
2022-11-29T13:44:04.413Z,20.10
2022-11-29T13:46:23.684Z,18.90
2022-11-29T13:48:47.336Z,19.60
2022-11-29T13:50:52.043Z,18.30
2022-11-29T13:53:05.344Z,19.50
2022-11-29T13:55:23.818Z,17.80
2022-11-29T13:57:28.449Z,18.20
2022-11-29T13:59:35.960Z,19.30
2022-11-29T14:01:49.261Z,18.50
2022-11-29T14:04:04.790Z,18.80
2022-11-29T14:06:16.180Z,19.30
2022-11-29T14:08:42.516Z,18.30
2022-11-29T14:10:55.256Z,17.60
2022-11-29T14:13:00.229Z,18.70
2022-11-29T14:15:17.573Z,19.10
2022-11-29T14:17:45.909Z,20.30
2022-11-29T14:19:50.650Z,30.80
2022-11-29T14:22:29.326Z,26.60
2022-11-29T14:24:54.861Z,19.30
2022-11-29T14:27:38.621Z,20.90
2022-11-29T14:29:56.116Z,21.90
2022-11-29T14:32:01.277Z,21.50
2022-11-29T14:34:12.441Z,21.40
2022-11-29T14:36:31.605Z,22.40
2022-11-29T14:38:44.643Z,21.70
2022-11-29T14:40:57.546Z,22.20
2022-11-29T14:43:14.159Z,23.70
2022-11-29T14:45:28.566Z,23.90
2022-11-29T14:47:36.358Z,21.20
2022-11-29T14:49:44.676Z,21.40
2022-11-29T14:52:08.764Z,22.30
2022-11-29T14:54:18.251Z,23.40
2022-11-29T14:56:40.503Z,22.60
2022-11-29T14:58:46.015Z,20.50
2022-11-29T15:00:58.710Z,25.20
2022-11-29T15:03:13.149Z,19.70
2022-11-29T15:05:21.514Z,23.20
2022-11-29T15:07:31.747Z,21.80
2022-11-29T15:09:38.240Z,22.50
2022-11-29T15:11:57.590Z,22.60
2022-11-29T15:14:07.180Z,24.40
2022-11-29T15:16:27.396Z,26.00
2022-11-29T15:18:51.207Z,22.30
2022-11-29T15:21:08.848Z,23.40
2022-11-29T15:23:17.434Z,22.70
2022-11-29T15:25:23.867Z,23.70
2022-11-29T15:27:28.962Z,23.50
2022-11-29T15:29:33.647Z,22.90
2022-11-29T15:31:40.816Z,22.70
2022-11-29T15:33:48.820Z,24.00
2022-11-29T15:35:55.348Z,23.90
2022-11-29T15:38:00.049Z,23.10
2022-11-29T15:40:10.253Z,22.70
2022-11-29T15:42:15.818Z,24.40
2022-11-29T15:44:23.173Z,24.10
2022-11-29T15:46:29.533Z,23.20
2022-11-29T15:48:34.467Z,22.80
2022-11-29T15:50:43.290Z,23.60
2022-11-29T15:52:48.005Z,21.90
2022-11-29T15:54:59.479Z,24.30
2022-11-29T15:57:10.528Z,23.50
2022-11-29T15:59:26.071Z,22.60
2022-11-29T16:01:31.957Z,23.20
2022-11-29T16:03:41.137Z,23.50
2022-11-29T16:05:52.724Z,22.40
2022-11-29T16:08:01.152Z,23.90
2022-11-29T16:10:12.805Z,22.60
2022-11-29T16:12:19.212Z,25.00
2022-11-29T16:14:26.566Z,25.40
2022-11-29T16:16:32.574Z,23.20
2022-11-29T16:18:40.132Z,26.00
2022-11-29T16:20:57.921Z,27.40
2022-11-29T16:23:13.943Z,24.90
2022-11-29T16:25:20.058Z,28.30
2022-11-29T16:27:25.094Z,24.90
2022-11-29T16:29:35.181Z,24.40
2022-11-29T16:31:41.396Z,26.30
2022-11-29T16:33:47.947Z,27.10
2022-11-29T16:36:02.984Z,27.20
2022-11-29T16:38:20.996Z,27.20
2022-11-29T16:40:30.650Z,28.20
2022-11-29T16:42:35.501Z,25.80
2022-11-29T16:45:03.156Z,26.80
2022-11-29T16:47:19.053Z,29.60
2022-11-29T16:49:35.983Z,25.50
2022-11-29T16:51:46.365Z,28.40
2022-11-29T16:53:55.368Z,26.60
2022-11-29T16:56:00.586Z,28.90
2022-11-29T16:58:05.987Z,27.70
2022-11-29T17:00:26.013Z,31.70
2022-11-29T17:02:31.328Z,28.10
2022-11-29T17:04:40.283Z,28.00
2022-11-29T17:06:46.350Z,27.20
2022-11-29T17:08:54.473Z,27.10
2022-11-29T17:11:00.749Z,27.70
2022-11-29T17:13:06.168Z,27.90
2022-11-29T17:15:12.516Z,27.60
2022-11-29T17:17:19.537Z,27.30
2022-11-29T17:19:30.674Z,30.70
2022-11-29T17:21:36.501Z,28.00
2022-11-29T17:23:42.657Z,29.90
2022-11-29T17:25:55.467Z,29.80
2022-11-29T17:28:01.009Z,28.10
2022-11-29T17:30:07.975Z,28.90
2022-11-29T17:32:13.293Z,26.60
2022-11-29T17:34:20.330Z,28.10
2022-11-29T17:36:25.840Z,29.60
2022-11-29T17:38:30.803Z,28.70
2022-11-29T17:40:37.701Z,29.70
2022-11-29T17:42:43.455Z,29.60
2022-11-29T17:44:48.857Z,28.60
2022-11-29T17:46:54.919Z,26.60
2022-11-29T17:49:04.600Z,26.10
2022-11-29T17:51:29.162Z,30.00
2022-11-29T17:53:35.932Z,29.20
2022-11-29T17:55:41.813Z,28.00
2022-11-29T17:57:47.568Z,29.50
2022-11-29T17:59:53.551Z,30.30
2022-11-29T18:01:58.255Z,28.00
2022-11-29T18:04:06.313Z,29.70
2022-11-29T18:06:13.561Z,29.10
2022-11-29T18:08:20.065Z,29.90
2022-11-29T18:10:26.593Z,29.40
2022-11-29T18:12:32.066Z,29.20
2022-11-29T18:14:38.128Z,32.10
2022-11-29T18:16:44.571Z,28.70
2022-11-29T18:18:54.392Z,27.20
2022-11-29T18:21:04.044Z,27.80
2022-11-29T18:23:10.744Z,26.70
2022-11-29T18:25:38.244Z,27.90
2022-11-29T18:27:43.267Z,29.80
2022-11-29T18:29:48.712Z,30.30
2022-11-29T18:31:55.624Z,31.40
2022-11-29T18:34:03.226Z,27.50
2022-11-29T18:36:11.008Z,31.70
2022-11-29T18:38:17.166Z,32.30
2022-11-29T18:40:26.078Z,31.00
2022-11-29T18:42:31.550Z,31.30
2022-11-29T18:44:40.139Z,30.10
2022-11-29T18:46:48.219Z,28.70
2022-11-29T18:48:54.308Z,30.60
2022-11-29T18:51:06.205Z,30.50
2022-11-29T18:53:13.085Z,30.00
2022-11-29T18:55:19.700Z,31.20
2022-11-29T18:57:26.224Z,30.50
2022-11-29T18:59:32.118Z,31.10
2022-11-29T19:01:39.792Z,24.40
2022-11-29T19:03:48.434Z,29.70
2022-11-29T19:05:57.930Z,29.50
2022-11-29T19:08:09.243Z,29.80
2022-11-29T19:10:16.333Z,32.40
2022-11-29T19:12:23.010Z,31.30
2022-11-29T19:14:35.200Z,32.30
2022-11-29T19:16:43.279Z,31.20
2022-11-29T19:18:53.020Z,32.30
2022-11-29T19:21:10.366Z,30.60
2022-11-29T19:23:17.626Z,32.40
2022-11-29T19:25:23.681Z,31.10
2022-11-29T19:27:31.420Z,28.80
2022-11-29T19:29:39.818Z,27.80
2022-11-29T19:31:51.663Z,31.40
2022-11-29T19:34:04.417Z,27.20
2022-11-29T19:36:15.569Z,28.40
2022-11-29T19:38:22.297Z,29.00
2022-11-29T19:40:31.634Z,30.10
2022-11-29T19:42:37.418Z,28.70
2022-11-29T19:45:15.216Z,29.30
2022-11-29T19:47:13.373Z,28.60
2022-11-29T19:49:20.153Z,30.10
2022-11-29T19:51:28.336Z,30.50
2022-11-29T19:53:35.083Z,29.80
2022-11-29T19:55:44.273Z,31.30
2022-11-29T19:57:51.630Z,30.40
2022-11-29T20:00:00.672Z,28.50
2022-11-29T20:02:06.802Z,27.80
2022-11-29T20:04:14.357Z,28.20
2022-11-29T20:06:21.192Z,29.40
2022-11-29T20:08:28.900Z,29.70
2022-11-29T20:10:35.734Z,28.60
2022-11-29T20:12:43.056Z,29.00
2022-11-29T20:14:49.155Z,29.50
2022-11-29T20:16:55.230Z,30.40
2022-11-29T20:19:03.023Z,28.80
2022-11-29T20:21:11.479Z,30.70
2022-11-29T20:23:18.068Z,29.70
2022-11-29T20:25:24.347Z,31.80
2022-11-29T20:27:32.528Z,32.20
2022-11-29T20:29:39.350Z,31.30
2022-11-29T20:31:50.711Z,30.30
2022-11-29T20:33:58.159Z,29.60
2022-11-29T20:36:14.139Z,29.80
2022-11-29T20:38:31.499Z,29.10
2022-11-29T20:40:52.802Z,29.80
2022-11-29T20:43:15.714Z,30.30
2022-11-29T20:45:23.796Z,27.70
2022-11-29T20:47:40.952Z,32.80
2022-11-29T20:49:48.554Z,67.20
2022-11-29T20:52:02.951Z,35.70
2022-11-29T20:54:12.955Z,31.40
2022-11-29T20:56:19.328Z,29.00
2022-11-29T20:58:25.708Z,31.70
2022-11-29T21:00:32.204Z,30.50
2022-11-29T21:02:38.171Z,27.90
2022-11-29T21:04:44.452Z,29.10
2022-11-29T21:06:50.050Z,28.40
2022-11-29T21:08:55.357Z,29.10
2022-11-29T21:11:06.719Z,29.00
2022-11-29T21:13:14.661Z,32.30
2022-11-29T21:15:21.290Z,29.40
2022-11-29T21:17:33.193Z,29.20
2022-11-29T21:19:40.389Z,31.70
2022-11-29T21:21:57.753Z,28.60
2022-11-29T21:24:12.177Z,28.10
2022-11-29T21:26:20.383Z,30.00
2022-11-29T21:28:35.029Z,31.30
2022-11-29T21:30:41.163Z,31.80
2022-11-29T21:32:47.172Z,30.80
2022-11-29T21:34:52.574Z,30.10
2022-11-29T21:36:59.163Z,32.40
2022-11-29T21:39:05.418Z,34.20
2022-11-29T21:41:11.124Z,33.60
2022-11-29T21:43:16.063Z,35.30
2022-11-29T21:45:21.130Z,29.20
2022-11-29T21:47:26.117Z,33.70
2022-11-29T21:49:30.861Z,31.50
2022-11-29T21:51:35.863Z,31.50
2022-11-29T21:53:41.372Z,32.30
2022-11-29T21:55:46.062Z,32.30
2022-11-29T21:57:50.696Z,33.70
2022-11-29T21:59:55.336Z,29.80
2022-11-29T22:02:00.300Z,30.90
2022-11-29T22:04:05.336Z,33.00
2022-11-29T22:06:12.587Z,31.00
2022-11-29T22:08:17.276Z,34.70
2022-11-29T22:10:21.915Z,32.80
2022-11-29T22:12:34.076Z,33.40
2022-11-29T22:14:39.522Z,32.50
2022-11-29T22:16:46.112Z,33.80
2022-11-29T22:18:50.781Z,34.60
2022-11-29T22:20:55.504Z,34.90
2022-11-29T22:23:00.207Z,33.20
2022-11-29T22:25:08.979Z,32.20
2022-11-29T22:27:13.732Z,34.90
2022-11-29T22:29:18.533Z,32.00
2022-11-29T22:31:23.339Z,33.30
2022-11-29T22:33:28.018Z,33.00
2022-11-29T22:35:32.763Z,32.10
2022-11-29T22:37:37.463Z,34.30
2022-11-29T22:39:42.073Z,34.00
2022-11-29T22:41:52.291Z,35.90
2022-11-29T22:43:58.911Z,34.10
2022-11-29T22:46:08.129Z,32.60
2022-11-29T22:48:12.822Z,35.10
2022-11-29T22:50:17.641Z,36.20
2022-11-29T22:52:22.423Z,33.80
2022-11-29T22:54:27.263Z,32.40
2022-11-29T22:56:33.854Z,34.10
2022-11-29T22:58:39.060Z,33.00
2022-11-29T23:00:43.819Z,35.40
2022-11-29T23:02:48.654Z,34.00
2022-11-29T23:04:53.258Z,33.70
2022-11-29T23:06:57.885Z,33.00
2022-11-29T23:09:07.148Z,32.70
2022-11-29T23:11:13.601Z,35.30
2022-11-29T23:13:18.221Z,35.60
2022-11-29T23:15:22.849Z,34.30
2022-11-29T23:17:27.474Z,35.70
2022-11-29T23:19:32.124Z,37.10
2022-11-29T23:21:38.522Z,35.20
2022-11-29T23:23:44.073Z,34.40
2022-11-29T23:25:51.667Z,34.20
2022-11-29T23:27:57.142Z,34.20
2022-11-29T23:30:01.709Z,32.10
2022-11-29T23:32:06.478Z,35.10
2022-11-29T23:34:12.310Z,35.40
2022-11-29T23:36:17.382Z,34.60
2022-11-29T23:38:22.072Z,35.30
2022-11-29T23:40:26.768Z,35.40
2022-11-29T23:42:31.421Z,38.10
2022-11-29T23:44:36.071Z,36.60
2022-11-29T23:46:40.693Z,36.70
2022-11-29T23:48:45.675Z,38.80
2022-11-29T23:50:50.387Z,35.50
2022-11-29T23:52:56.191Z,35.20
2022-11-29T23:55:00.840Z,40.00
2022-11-29T23:57:05.600Z,35.60
2022-11-29T23:59:10.841Z,37.00
